Eagle Kuching — 9V8132 — position and weather

sailwx.info

Track history (hours):
 
Tides and Currents Weather Stations Pressure Air Temp Water Temp Dewpoint Dewpoint Depression Visibility Wind Speed Wind Dir Waves Ship Positions

Eagle Kuching

Last reported at 2018-Jun-24 00:33 UTC. Time now 2018-Jun-25 00:42 UTC.
Position N 28°31' W 094°23'.

Length 243 m; draft 8.7 m.

Type: Tanker. MMSI: 565108000.

Date/timePositionNaut miles runAvg speedWind from/ knotsBaromVisibWave heightAir tempDewpointWater temp
2018-Jun-24 00:33N 28°31' W 094°23'13 0.7
2018-Jun-23 06:04N 28°34' W 094°38'0 2.4
2018-Jun-23 05:59N 28°34' W 094°37'2 4.1
2018-Jun-23 05:27N 28°34' W 094°35'2 5.1
2018-Jun-23 05:00N 28°33' W 094°32'1 2.7
2018-Jun-23 04:30N 28°34' W 094°32'1 1.4
2018-Jun-23 04:00N 28°34' W 094°32'1 2.9
2018-Jun-23 03:30N 28°33' W 094°34'2 4.6
2018-Jun-23 03:00N 28°32' W 094°36'0 0.4
2018-Jun-23 02:16N 28°32' W 094°36'0 0.0
2018-Jun-23 01:58N 28°32' W 094°36'0 0.0
2018-Jun-22 04:22N 28°32' W 094°37'4 8.2
2018-Jun-22 03:49N 28°33' W 094°42'1712.0
2018-Jun-22 02:22N 28°39' W 095°00'613.2
2018-Jun-22 01:57N 28°43' W 095°05'613.2
2018-Jun-22 01:30N 28°47' W 095°09'713.1
2018-Jun-22 01:00N 28°52' W 095°14'5 9.5
2018-Jun-22 00:30N 28°56' W 095°18'1 0.1
2018-Jun-20 19:32N 28°56' W 095°19'0 0.3
2018-Jun-20 19:30N 28°56' W 095°19'0 0.0
2018-Jun-20 19:00N 28°56' W 095°19'1 2.6
2018-Jun-20 18:30N 28°56' W 095°18'510.1
2018-Jun-20 18:00N 28°52' W 095°14'3 5.3
2018-Jun-20 17:30N 28°50' W 095°13'3 5.1
2018-Jun-20 17:00N 28°47' W 095°12'1 0.1
2018-Jun-20 03:10N 28°46' W 095°12'0 0.1
2018-Jun-20 02:58N 28°46' W 095°12'0 0.0
2018-Jun-20 02:16N 28°46' W 095°12'0 0.0
2018-Jun-20 01:58N 28°46' W 095°12'0 0.0
2018-Jun-20 01:28N 28°46' W 095°12'0 0.0
2018-Jun-20 00:22N 28°46' W 095°12'0 0.0
2018-Jun-19 22:28N 28°46' W 095°12'0 0.0
2018-Jun-19 21:49N 28°46' W 095°12'0 0.0
2018-Jun-19 18:49N 28°46' W 095°12'0 0.0
2018-Jun-19 18:28N 28°46' W 095°12'0 0.0
2018-Jun-19 17:55N 28°46' W 095°12'0 0.0
2018-Jun-19 17:19N 28°46' W 095°12'0 0.0
2018-Jun-19 16:58N 28°46' W 095°12'0 0.0
2018-Jun-19 16:01N 28°46' W 095°12'0 0.0
2018-Jun-19 15:58N 28°46' W 095°12'0 0.0
2018-Jun-19 04:55N 28°46' W 095°12'0 0.0
2018-Jun-19 04:13N 28°46' W 095°12'0 0.0
2018-Jun-19 03:52N 28°46' W 095°12'0 0.1
2018-Jun-19 02:37N 28°46' W 095°12'0 0.0
2018-Jun-19 00:04N 28°46' W 095°12'0 0.0
2018-Jun-18 23:49N 28°46' W 095°12'0 0.0
2018-Jun-18 23:22N 28°46' W 095°12'0 0.0
2018-Jun-18 22:01N 28°46' W 095°12'0 0.1
2018-Jun-18 21:58N 28°46' W 095°12'0 0.0
2018-Jun-18 21:28N 28°46' W 095°12'0 0.0
2018-Jun-18 20:49N 28°46' W 095°12'0 0.0
2018-Jun-18 17:10N 28°46' W 095°12'0 0.0
2018-Jun-18 16:37N 28°46' W 095°12'0 0.0
2018-Jun-18 12:49N 28°46' W 095°12'0 0.1
2018-Jun-18 12:04N 28°46' W 095°12'0 0.1
2018-Jun-18 11:10N 28°46' W 095°12'0 0.0
2018-Jun-18 10:58N 28°46' W 095°12'0 0.0
2018-Jun-18 10:07N 28°46' W 095°12'0 0.0
2018-Jun-18 09:46N 28°46' W 095°12'0 0.0
2018-Jun-18 09:28N 28°46' W 095°12'0 0.0
2018-Jun-18 08:58N 28°46' W 095°12'0 0.0
2018-Jun-18 06:13N 28°46' W 095°12'0 0.0
2018-Jun-18 04:58N 28°46' W 095°12'0 0.0
2018-Jun-18 04:19N 28°46' W 095°12'0 0.0
2018-Jun-18 03:49N 28°46' W 095°12'0 0.0
2018-Jun-18 03:22N 28°46' W 095°12'0 0.0
2018-Jun-18 02:49N 28°46' W 095°12'0 0.0
2018-Jun-18 02:04N 28°46' W 095°12'0 0.1
2018-Jun-18 01:58N 28°46' W 095°12'0 0.0
2018-Jun-17 23:16N 28°46' W 095°12'0 0.0
2018-Jun-17 22:22N 28°46' W 095°12'0 0.0
2018-Jun-17 21:55N 28°46' W 095°12'0 0.0
2018-Jun-17 20:16N 28°46' W 095°12'0 0.0
2018-Jun-17 19:46N 28°46' W 095°12'0 0.0
2018-Jun-17 19:28N 28°46' W 095°12'0 0.0
2018-Jun-17 18:04N 28°46' W 095°12'0 0.1
2018-Jun-17 17:55N 28°46' W 095°12'0 0.1
2018-Jun-17 17:28N 28°46' W 095°12'0 0.0
2018-Jun-17 15:46N 28°46' W 095°12'50 5.3
2018-Jun-17 06:25N 29°33' W 094°55'410.9
2018-Jun-17 06:00N 29°37' W 094°57'5 9.9
2018-Jun-17 05:30N 29°42' W 094°59'4 7.3
2018-Jun-17 04:58N 29°44' W 095°03'  
2018-Jun-14 16:19N 29°43' W 095°01'2 7.3
2018-Jun-14 15:59N 29°41' W 094°59'4 8.3
2018-Jun-14 15:30N 29°38' W 094°58'5 9.1
2018-Jun-14 15:00N 29°34' W 094°55'4 8.9
2018-Jun-14 14:30N 29°30' W 094°52'4 7.6
2018-Jun-14 13:59N 29°26' W 094°50'3 6.6
2018-Jun-14 13:30N 29°23' W 094°49'4 7.4
2018-Jun-14 13:01N 29°21' W 094°46'4 7.6
2018-Jun-14 12:30N 29°21' W 094°42'4 8.6
2018-Jun-14 11:59N 29°18' W 094°37'22 8.0
2018-Jun-14 09:09N 28°59' W 094°25'412.0
2018-Jun-14 08:51N 28°55' W 094°24'  
Track history (hours):
 
Tides and Currents Weather Stations Pressure Air Temp Water Temp Dewpoint Dewpoint Depression Visibility Wind Speed Wind Dir Waves Ship Positions

Eagle Kuching

Last reported at 2018-Jun-24 00:33 UTC. Time now 2018-Jun-25 00:42 UTC.
Position N 28°31' W 094°23'.

Length 243 m; draft 8.7 m.

Type: Tanker. MMSI: 565108000.

Date/timePositionNaut miles runAvg speedWind from/ knotsBaromVisibWave heightAir tempDewpointWater temp
2018-Jun-24 00:33N 28°31' W 094°23'13 0.7
2018-Jun-23 06:04N 28°34' W 094°38'0 2.4
2018-Jun-23 05:59N 28°34' W 094°37'2 4.1
2018-Jun-23 05:27N 28°34' W 094°35'2 5.1
2018-Jun-23 05:00N 28°33' W 094°32'1 2.7
2018-Jun-23 04:30N 28°34' W 094°32'1 1.4
2018-Jun-23 04:00N 28°34' W 094°32'1 2.9
2018-Jun-23 03:30N 28°33' W 094°34'2 4.6
2018-Jun-23 03:00N 28°32' W 094°36'0 0.4
2018-Jun-23 02:16N 28°32' W 094°36'0 0.0
2018-Jun-23 01:58N 28°32' W 094°36'0 0.0
2018-Jun-22 04:22N 28°32' W 094°37'4 8.2
2018-Jun-22 03:49N 28°33' W 094°42'1712.0
2018-Jun-22 02:22N 28°39' W 095°00'613.2
2018-Jun-22 01:57N 28°43' W 095°05'613.2
2018-Jun-22 01:30N 28°47' W 095°09'713.1
2018-Jun-22 01:00N 28°52' W 095°14'5 9.5
2018-Jun-22 00:30N 28°56' W 095°18'1 0.1
2018-Jun-20 19:32N 28°56' W 095°19'0 0.3
2018-Jun-20 19:30N 28°56' W 095°19'0 0.0
2018-Jun-20 19:00N 28°56' W 095°19'1 2.6
2018-Jun-20 18:30N 28°56' W 095°18'510.1
2018-Jun-20 18:00N 28°52' W 095°14'3 5.3
2018-Jun-20 17:30N 28°50' W 095°13'3 5.1
2018-Jun-20 17:00N 28°47' W 095°12'1 0.1
2018-Jun-20 03:10N 28°46' W 095°12'0 0.1
2018-Jun-20 02:58N 28°46' W 095°12'0 0.0
2018-Jun-20 02:16N 28°46' W 095°12'0 0.0
2018-Jun-20 01:58N 28°46' W 095°12'0 0.0
2018-Jun-20 01:28N 28°46' W 095°12'0 0.0
2018-Jun-20 00:22N 28°46' W 095°12'0 0.0
2018-Jun-19 22:28N 28°46' W 095°12'0 0.0
2018-Jun-19 21:49N 28°46' W 095°12'0 0.0
2018-Jun-19 18:49N 28°46' W 095°12'0 0.0
2018-Jun-19 18:28N 28°46' W 095°12'0 0.0
2018-Jun-19 17:55N 28°46' W 095°12'0 0.0
2018-Jun-19 17:19N 28°46' W 095°12'0 0.0
2018-Jun-19 16:58N 28°46' W 095°12'0 0.0
2018-Jun-19 16:01N 28°46' W 095°12'0 0.0
2018-Jun-19 15:58N 28°46' W 095°12'0 0.0
2018-Jun-19 04:55N 28°46' W 095°12'0 0.0
2018-Jun-19 04:13N 28°46' W 095°12'0 0.0
2018-Jun-19 03:52N 28°46' W 095°12'0 0.1
2018-Jun-19 02:37N 28°46' W 095°12'0 0.0
2018-Jun-19 00:04N 28°46' W 095°12'0 0.0
2018-Jun-18 23:49N 28°46' W 095°12'0 0.0
2018-Jun-18 23:22N 28°46' W 095°12'0 0.0
2018-Jun-18 22:01N 28°46' W 095°12'0 0.1
2018-Jun-18 21:58N 28°46' W 095°12'0 0.0
2018-Jun-18 21:28N 28°46' W 095°12'0 0.0
2018-Jun-18 20:49N 28°46' W 095°12'0 0.0
2018-Jun-18 17:10N 28°46' W 095°12'0 0.0
2018-Jun-18 16:37N 28°46' W 095°12'0 0.0
2018-Jun-18 12:49N 28°46' W 095°12'0 0.1
2018-Jun-18 12:04N 28°46' W 095°12'0 0.1
2018-Jun-18 11:10N 28°46' W 095°12'0 0.0
2018-Jun-18 10:58N 28°46' W 095°12'0 0.0
2018-Jun-18 10:07N 28°46' W 095°12'0 0.0
2018-Jun-18 09:46N 28°46' W 095°12'0 0.0
2018-Jun-18 09:28N 28°46' W 095°12'0 0.0
2018-Jun-18 08:58N 28°46' W 095°12'0 0.0
2018-Jun-18 06:13N 28°46' W 095°12'0 0.0
2018-Jun-18 04:58N 28°46' W 095°12'0 0.0
2018-Jun-18 04:19N 28°46' W 095°12'0 0.0
2018-Jun-18 03:49N 28°46' W 095°12'0 0.0
2018-Jun-18 03:22N 28°46' W 095°12'0 0.0
2018-Jun-18 02:49N 28°46' W 095°12'0 0.0
2018-Jun-18 02:04N 28°46' W 095°12'0 0.1
2018-Jun-18 01:58N 28°46' W 095°12'0 0.0
2018-Jun-17 23:16N 28°46' W 095°12'0 0.0
2018-Jun-17 22:22N 28°46' W 095°12'0 0.0
2018-Jun-17 21:55N 28°46' W 095°12'0 0.0
2018-Jun-17 20:16N 28°46' W 095°12'0 0.0
2018-Jun-17 19:46N 28°46' W 095°12'0 0.0
2018-Jun-17 19:28N 28°46' W 095°12'0 0.0
2018-Jun-17 18:04N 28°46' W 095°12'0 0.1
2018-Jun-17 17:55N 28°46' W 095°12'0 0.1
2018-Jun-17 17:28N 28°46' W 095°12'0 0.0
2018-Jun-17 15:46N 28°46' W 095°12'50 5.3
2018-Jun-17 06:25N 29°33' W 094°55'410.9
2018-Jun-17 06:00N 29°37' W 094°57'5 9.9
2018-Jun-17 05:30N 29°42' W 094°59'4 7.3
2018-Jun-17 04:58N 29°44' W 095°03'  
2018-Jun-14 16:19N 29°43' W 095°01'2 7.3
2018-Jun-14 15:59N 29°41' W 094°59'4 8.3
2018-Jun-14 15:30N 29°38' W 094°58'5 9.1
2018-Jun-14 15:00N 29°34' W 094°55'4 8.9
2018-Jun-14 14:30N 29°30' W 094°52'4 7.6
2018-Jun-14 13:59N 29°26' W 094°50'3 6.6
2018-Jun-14 13:30N 29°23' W 094°49'4 7.4
2018-Jun-14 13:01N 29°21' W 094°46'4 7.6
2018-Jun-14 12:30N 29°21' W 094°42'4 8.6
2018-Jun-14 11:59N 29°18' W 094°37'22 8.0
2018-Jun-14 09:09N 28°59' W 094°25'412.0
2018-Jun-14 08:51N 28°55' W 094°24'  

Dump ship's entire track history